createdAt,value
2023-09-18T00:02:51.905Z,75
2023-09-18T00:08:51.844Z,74.8
2023-09-18T00:14:52.558Z,74.7
2023-09-18T00:20:52.040Z,74.7
2023-09-18T00:26:52.080Z,74.9
2023-09-18T00:32:51.905Z,75.1
2023-09-18T00:38:52.000Z,74.9
2023-09-18T00:44:52.132Z,75.4
2023-09-18T00:50:51.798Z,75.4
2023-09-18T00:56:51.717Z,75.6
2023-09-18T01:02:52.204Z,75.9
2023-09-18T01:08:52.344Z,75.6
2023-09-18T01:14:52.231Z,75.4
2023-09-18T01:20:51.628Z,75.5
2023-09-18T01:26:51.749Z,75.6
2023-09-18T01:32:51.862Z,75.5
2023-09-18T01:38:52.150Z,75.5
2023-09-18T01:44:52.122Z,75.4
2023-09-18T01:50:52.071Z,75.3
2023-09-18T01:56:51.915Z,75.2
2023-09-18T02:02:55.623Z,75.2
2023-09-18T02:08:52.434Z,75.1
2023-09-18T02:14:51.818Z,74.6
2023-09-18T02:20:51.698Z,74
2023-09-18T02:26:51.680Z,74
2023-09-18T02:32:51.786Z,74.1
2023-09-18T02:38:52.805Z,74.7
2023-09-18T02:44:52.140Z,75.5
2023-09-18T02:50:51.866Z,76
2023-09-18T02:56:51.781Z,76.6
2023-09-18T03:02:52.011Z,78
2023-09-18T03:08:52.419Z,78.4
2023-09-18T03:14:52.315Z,78
2023-09-18T03:20:51.837Z,77.8
2023-09-18T03:26:52.551Z,77.6
2023-09-18T03:32:52.185Z,78
2023-09-18T03:38:51.914Z,79.2
2023-09-18T03:44:51.986Z,78
2023-09-18T03:50:52.106Z,78.2
2023-09-18T03:56:51.919Z,77.9
2023-09-18T04:02:51.906Z,78
2023-09-18T04:08:52.121Z,77.4
2023-09-18T04:14:52.295Z,77.4
2023-09-18T04:20:52.052Z,77
2023-09-18T04:26:52.146Z,77.5
2023-09-18T04:32:52.519Z,77.6
2023-09-18T04:38:52.832Z,77.3
2023-09-18T04:44:52.889Z,77.3
2023-09-18T04:50:52.582Z,77.4
2023-09-18T04:56:52.120Z,77.6
2023-09-18T05:02:52.645Z,77.3
2023-09-18T05:08:52.751Z,77.2
2023-09-18T05:14:52.345Z,76.8
2023-09-18T05:20:52.291Z,76.8
2023-09-18T05:26:51.891Z,75.8
2023-09-18T05:32:52.695Z,75.7
2023-09-18T05:38:52.260Z,75.9
2023-09-18T05:44:52.037Z,75.8
2023-09-18T05:50:52.478Z,75.3
2023-09-18T05:56:52.344Z,74.5
2023-09-18T06:02:52.417Z,74.4
2023-09-18T06:08:52.969Z,74.4
2023-09-18T06:14:52.794Z,74.4
2023-09-18T06:20:52.207Z,73.8
2023-09-18T06:26:53.033Z,73.5
2023-09-18T06:32:53.319Z,73.6
2023-09-18T06:38:52.242Z,72.9
2023-09-18T06:44:51.996Z,72.5
2023-09-18T06:50:52.936Z,71.9
2023-09-18T06:56:52.125Z,71.8
2023-09-18T07:02:53.084Z,71
2023-09-18T07:08:52.301Z,71.6
2023-09-18T07:14:52.115Z,70.9
2023-09-18T07:20:52.939Z,70.6
2023-09-18T07:26:52.640Z,70.7
2023-09-18T07:32:52.995Z,70.5
2023-09-18T07:38:52.745Z,70.2
2023-09-18T07:44:52.258Z,70.7
2023-09-18T07:50:53.092Z,70.6
2023-09-18T07:56:52.479Z,70.3
2023-09-18T08:02:55.204Z,70.3
2023-09-18T08:08:52.382Z,70.1
2023-09-18T08:14:53.072Z,70.5
2023-09-18T08:20:52.324Z,70.7
2023-09-18T08:26:52.131Z,70.6
2023-09-18T08:32:52.639Z,70.7
2023-09-18T08:38:52.839Z,69.8
2023-09-18T08:44:52.675Z,69.7
2023-09-18T08:50:51.993Z,69.9
2023-09-18T08:56:52.136Z,70.1
2023-09-18T09:02:53.160Z,69.6
2023-09-18T09:08:54.099Z,69.5
2023-09-18T09:14:52.906Z,69.3
2023-09-18T09:20:52.387Z,69
2023-09-18T09:26:51.974Z,68.9
2023-09-18T09:32:52.435Z,69
2023-09-18T09:38:52.942Z,68.7
2023-09-18T09:44:53.265Z,68.4
2023-09-18T09:50:52.070Z,68.5
2023-09-18T09:56:52.509Z,67.4
2023-09-18T10:02:52.464Z,67.4
2023-09-18T10:08:52.390Z,67.3
2023-09-18T10:15:01.601Z,67.5
2023-09-18T10:20:51.952Z,67.5
2023-09-18T10:26:52.222Z,67.1
2023-09-18T10:32:52.334Z,67
2023-09-18T10:38:52.990Z,66
2023-09-18T10:44:52.623Z,65.8
2023-09-18T10:50:52.444Z,64.4
2023-09-18T10:56:52.624Z,64.2
2023-09-18T11:02:53.111Z,63.7
2023-09-18T11:08:52.336Z,61.9
2023-09-18T11:14:52.197Z,61.9
2023-09-18T11:20:51.954Z,61.7
2023-09-18T11:26:51.994Z,60.7
2023-09-18T11:32:52.439Z,57.1
2023-09-18T11:38:52.368Z,57.7
2023-09-18T11:44:52.014Z,58.1
2023-09-18T11:50:52.296Z,54.7
2023-09-18T11:56:52.169Z,54.9
2023-09-18T12:02:52.782Z,54.7
2023-09-18T12:08:52.290Z,53.2
2023-09-18T12:14:52.680Z,52.2
2023-09-18T12:20:52.412Z,52.9
2023-09-18T12:26:52.473Z,52.2
2023-09-18T12:32:52.421Z,51.6
2023-09-18T12:38:52.963Z,51.4
2023-09-18T12:44:52.826Z,50.7
2023-09-18T12:50:52.569Z,50.2
2023-09-18T12:56:52.222Z,49.8
2023-09-18T13:02:52.747Z,48.1
2023-09-18T13:08:52.167Z,47.2
2023-09-18T13:14:52.342Z,46.5
2023-09-18T13:20:52.154Z,45.3
2023-09-18T13:26:52.194Z,44
2023-09-18T13:32:52.310Z,44.1
2023-09-18T13:38:52.759Z,43.8
2023-09-18T13:44:53.157Z,43.3
2023-09-18T13:50:53.330Z,43.9
2023-09-18T13:56:54.942Z,43.4
2023-09-18T14:02:52.270Z,42.2
2023-09-18T14:08:52.601Z,43.6
2023-09-18T14:14:52.652Z,42.2
2023-09-18T14:20:52.166Z,41.8
2023-09-18T14:26:52.521Z,41.3
2023-09-18T14:32:52.874Z,41.9
2023-09-18T14:38:52.591Z,40.8
2023-09-18T14:44:53.076Z,39.1
2023-09-18T14:50:52.946Z,39.7
2023-09-18T14:56:53.423Z,39
2023-09-18T15:02:52.681Z,38.7
2023-09-18T15:08:52.576Z,36.4
2023-09-18T15:14:52.696Z,36.9
2023-09-18T15:20:52.631Z,35
2023-09-18T15:26:52.333Z,35.7
2023-09-18T15:32:53.052Z,35.5
2023-09-18T15:38:52.695Z,34.4
2023-09-18T15:44:53.960Z,33.8
2023-09-18T15:50:52.766Z,34.2
2023-09-18T15:56:52.200Z,35
2023-09-18T16:02:53.125Z,32.9
2023-09-18T16:08:52.423Z,34.4
2023-09-18T16:14:52.739Z,38.6
2023-09-18T16:20:52.729Z,39.9
2023-09-18T16:26:52.239Z,39.6
2023-09-18T16:32:52.609Z,38.6
2023-09-18T16:38:52.185Z,40.6
2023-09-18T16:44:53.820Z,41.5
2023-09-18T16:50:52.986Z,41.6
2023-09-18T16:56:52.699Z,43.7
2023-09-18T17:02:52.478Z,44.7
2023-09-18T17:08:52.740Z,45.2
2023-09-18T17:14:52.885Z,46.3
2023-09-18T17:20:52.851Z,47.5
2023-09-18T17:26:57.925Z,47.7
2023-09-18T17:32:53.340Z,48
2023-09-18T17:38:52.835Z,48.4
2023-09-18T17:44:52.518Z,49
2023-09-18T17:50:52.582Z,49.2
2023-09-18T17:56:52.664Z,49.4
2023-09-18T18:02:53.248Z,49.4
2023-09-18T18:08:52.430Z,49.8
2023-09-18T18:14:52.875Z,50.1
2023-09-18T18:20:53.094Z,50.2
2023-09-18T18:26:52.552Z,50.4
2023-09-18T18:32:53.117Z,50.3
2023-09-18T18:38:52.908Z,64.8
2023-09-18T18:56:52.803Z,72.4
2023-09-18T19:02:52.926Z,73.3
2023-09-18T19:08:52.977Z,73.8
2023-09-18T19:14:52.570Z,73.2
2023-09-18T19:20:52.612Z,74.3
2023-09-18T19:26:52.284Z,73.5
2023-09-18T19:32:52.365Z,74.5
2023-09-18T19:44:52.857Z,75.7
2023-09-18T19:50:52.794Z,75.5
2023-09-18T19:56:52.531Z,75.1
2023-09-18T20:02:52.425Z,75
2023-09-18T20:08:52.332Z,74.4
2023-09-18T20:14:52.728Z,75
2023-09-18T20:20:52.326Z,74.9
2023-09-18T20:32:52.435Z,75.1
2023-09-18T20:44:52.384Z,76
2023-09-18T20:50:52.761Z,76.4
2023-09-18T21:02:54.401Z,75.8
2023-09-18T21:08:53.318Z,76.4
2023-09-18T21:14:53.252Z,77.1
2023-09-18T21:20:54.044Z,77.9
2023-09-18T21:26:53.962Z,77.8
2023-09-18T21:38:52.292Z,76.4
2023-09-18T21:44:52.720Z,76.4
2023-09-18T21:50:52.448Z,75.9
2023-09-18T22:02:52.781Z,76
2023-09-18T22:08:52.918Z,75.1
2023-09-18T22:14:53.496Z,75.3
2023-09-18T22:20:52.895Z,75.5
2023-09-18T22:32:52.531Z,75.8
2023-09-18T22:38:52.744Z,74.9
2023-09-18T22:44:52.562Z,75.4
2023-09-18T22:50:52.473Z,75.4
2023-09-18T23:02:52.548Z,72.3
2023-09-18T23:14:52.683Z,70.2
2023-09-18T23:20:53.157Z,70.1
2023-09-18T23:26:52.429Z,70.5
2023-09-18T23:32:52.563Z,69.7
2023-09-18T23:38:52.476Z,69.5
2023-09-18T23:50:52.944Z,69.9
